Time;durP1;ratioP1;P1;durP2;ratioP2;P2;SDS_P1;SDS_P2;PMS_P1;PMS_P2;Temp;Humidity;BMP_temperature;BMP_pressure;BME280_temperature;BME280_humidity;BME280_pressure;Samples;Min_cycle;Max_cycle;Signal;HPM_P1;HPM_P2
2023/08/31 00:01:32;;;;;;;2.40;1.40;;;11.80;99.90;;;;;;5040019;28;20042;-79
2023/08/31 00:03:59;;;;;;;2.45;1.60;;;11.70;99.90;;;;;;5043262;28;20432;-80
2023/08/31 00:06:25;;;;;;;6.03;1.90;;;11.70;99.90;;;;;;5044879;28;20064;-79
2023/08/31 00:08:51;;;;;;;3.25;1.88;;;11.70;99.90;;;;;;5036548;28;20478;-80
2023/08/31 00:11:17;;;;;;;5.05;1.80;;;13.20;99.90;;;;;;5040085;28;20045;-80
2023/08/31 00:13:42;;;;;;;4.93;2.30;;;11.70;99.90;;;;;;5029042;28;20033;-80
2023/08/31 00:16:09;;;;;;;2.95;2.10;;;12.30;99.90;;;;;;5038147;28;20433;-79
2023/08/31 00:18:36;;;;;;;4.30;1.77;;;11.70;99.90;;;;;;5039986;28;20060;-79
2023/08/31 00:21:02;;;;;;;2.20;1.70;;;11.70;99.90;;;;;;5036630;28;20076;-80
2023/08/31 00:23:29;;;;;;;2.05;1.55;;;11.70;99.90;;;;;;5028014;28;20493;-80
2023/08/31 00:25:57;;;;;;;4.07;1.98;;;11.70;99.90;;;;;;5031587;28;20048;-80
2023/08/31 00:28:22;;;;;;;4.47;1.98;;;11.70;99.90;;;;;;5041578;28;20045;-80
2023/08/31 00:30:48;;;;;;;3.03;1.80;;;11.70;99.90;;;;;;5040244;28;20075;-79
2023/08/31 00:33:15;;;;;;;3.33;2.15;;;11.70;99.90;;;;;;5032875;28;20052;-80
2023/08/31 00:35:45;;;;;;;5.30;1.60;;;11.70;99.90;;;;;;5011909;28;20524;-80
2023/08/31 00:38:11;;;;;;;6.88;1.75;;;11.70;99.90;;;;;;5037964;28;20049;-80
2023/08/31 00:40:45;;;;;;;4.07;1.63;;;11.70;99.90;;;;;;5039632;28;20060;-80
2023/08/31 00:43:11;;;;;;;3.47;1.40;;;11.70;99.90;;;;;;5048923;28;20388;-79
2023/08/31 00:45:38;;;;;;;2.42;1.25;;;11.80;99.90;;;;;;5040764;28;20041;-80
2023/08/31 00:48:04;;;;;;;3.53;1.75;;;11.60;99.90;;;;;;5039521;28;20080;-79
2023/08/31 00:50:31;;;;;;;2.30;1.63;;;11.60;99.90;;;;;;5040457;28;20073;-79
2023/08/31 00:52:56;;;;;;;2.38;1.33;;;11.60;99.90;;;;;;5046618;28;20042;-80
2023/08/31 00:55:23;;;;;;;2.35;1.13;;;13.00;99.90;;;;;;5033076;28;20049;-80
2023/08/31 00:57:49;;;;;;;5.00;1.08;;;11.60;99.90;;;;;;5043082;28;20397;-79
2023/08/31 01:00:16;;;;;;;2.75;0.90;;;11.60;99.90;;;;;;5026112;28;20053;-80
2023/08/31 01:02:41;;;;;;;4.65;1.00;;;11.60;99.90;;;;;;5046401;28;20037;-80
2023/08/31 01:05:29;;;;;;;3.55;1.00;;;12.10;99.90;;;;;;5050299;28;20121;-80
2023/08/31 01:08:13;;;;;;;2.97;1.23;;;11.50;99.90;;;;;;5052142;28;20048;-79
2023/08/31 01:10:41;;;;;;;2.70;1.10;;;11.50;99.90;;;;;;5051582;28;20055;-79
2023/08/31 01:13:13;;;;;;;2.38;1.05;;;11.50;99.90;;;;;;5035376;28;20057;-79
2023/08/31 01:15:46;;;;;;;2.78;0.90;;;11.50;99.90;;;;;;5043499;28;20409;-80
2023/08/31 01:18:16;;;;;;;3.60;0.70;;;11.50;99.90;;;;;;5043780;28;20071;-80
2023/08/31 01:21:18;;;;;;;3.55;1.10;;;11.50;99.90;;;;;;5045176;28;20037;-78
2023/08/31 01:23:50;;;;;;;4.35;1.73;;;11.40;99.90;;;;;;5043327;28;20049;-78
2023/08/31 01:26:16;;;;;;;2.10;1.02;;;11.50;99.90;;;;;;5040697;28;20512;-79
2023/08/31 01:28:42;;;;;;;2.15;0.80;;;11.40;99.90;;;;;;5044473;28;20072;-78
2023/08/31 01:31:09;;;;;;;2.70;1.08;;;11.30;99.90;;;;;;5050252;28;20081;-78
2023/08/31 01:33:35;;;;;;;1.35;0.65;;;11.30;99.90;;;;;;5029880;28;20056;-78
2023/08/31 01:36:04;;;;;;;3.00;1.00;;;11.30;99.90;;;;;;5044856;28;20042;-78
2023/08/31 01:38:35;;;;;;;3.10;0.73;;;11.20;99.90;;;;;;5032590;28;20051;-78
2023/08/31 01:41:08;;;;;;;1.35;0.50;;;11.20;99.90;;;;;;5042345;28;20033;-78
2023/08/31 01:43:36;;;;;;;1.35;0.60;;;11.40;99.90;;;;;;5034893;28;20081;-78
2023/08/31 01:46:02;;;;;;;1.88;0.52;;;11.20;99.90;;;;;;5051088;28;20481;-79
2023/08/31 01:48:28;;;;;;;2.38;0.82;;;11.30;99.90;;;;;;5052634;28;20063;-79
2023/08/31 01:50:54;;;;;;;2.63;0.55;;;12.20;99.90;;;;;;5041462;28;20493;-78
2023/08/31 01:53:19;;;;;;;0.82;0.57;;;11.10;99.90;;;;;;5046786;28;20041;-79
2023/08/31 01:55:45;;;;;;;1.15;0.60;;;11.10;99.90;;;;;;5034855;28;20401;-78
2023/08/31 01:58:10;;;;;;;2.53;0.80;;;11.10;99.90;;;;;;5045077;28;20044;-79
2023/08/31 02:00:38;;;;;;;0.98;0.30;;;12.20;99.90;;;;;;5033311;28;20473;-79
2023/08/31 02:03:04;;;;;;;0.90;0.40;;;11.50;99.90;;;;;;5044509;28;20051;-79
2023/08/31 02:05:30;;;;;;;3.60;0.68;;;11.00;99.90;;;;;;5044334;28;20068;-79
2023/08/31 02:07:55;;;;;;;4.63;0.43;;;11.60;99.90;;;;;;5040705;28;20481;-78
2023/08/31 02:10:21;;;;;;;1.95;0.60;;;11.70;99.90;;;;;;5040368;28;20041;-78
2023/08/31 02:12:47;;;;;;;0.82;0.60;;;11.00;99.90;;;;;;5041438;28;20041;-78
2023/08/31 02:15:12;;;;;;;5.13;0.60;;;11.60;99.90;;;;;;5051742;28;20037;-79
2023/08/31 02:17:38;;;;;;;2.03;0.50;;;10.90;99.90;;;;;;5034365;28;20040;-80
2023/08/31 02:20:06;;;;;;;4.13;0.95;;;11.80;99.90;;;;;;5040309;28;20421;-79
2023/08/31 02:22:34;;;;;;;2.03;0.40;;;10.90;99.90;;;;;;5040029;28;20474;-79
2023/08/31 02:25:00;;;;;;;4.75;0.55;;;10.90;99.90;;;;;;5035136;28;20501;-79
2023/08/31 02:27:26;;;;;;;1.95;0.68;;;10.90;99.90;;;;;;5050556;28;20084;-79
2023/08/31 02:29:52;;;;;;;2.03;0.75;;;10.90;99.90;;;;;;5030700;28;20069;-79
2023/08/31 02:32:18;;;;;;;3.85;0.40;;;10.90;99.90;;;;;;5011231;28;20049;-79
2023/08/31 02:34:43;;;;;;;5.15;0.50;;;10.90;99.90;;;;;;5044268;28;20049;-79
2023/08/31 02:37:09;;;;;;;2.90;0.35;;;10.90;99.90;;;;;;5042420;28;20431;-79
2023/08/31 02:39:35;;;;;;;2.28;0.50;;;10.90;99.90;;;;;;5043261;28;20041;-79
2023/08/31 02:42:00;;;;;;;2.60;0.70;;;12.50;99.90;;;;;;5026234;28;20140;-79
2023/08/31 02:44:26;;;;;;;1.48;0.60;;;11.50;99.90;;;;;;5038064;28;20048;-79
2023/08/31 02:46:52;;;;;;;2.90;0.55;;;10.90;99.90;;;;;;5036107;28;20167;-79
2023/08/31 02:49:17;;;;;;;2.47;0.40;;;10.90;99.90;;;;;;5052692;28;20115;-79
2023/08/31 02:51:43;;;;;;;4.70;0.60;;;10.90;99.90;;;;;;5036082;28;20033;-79
2023/08/31 02:54:08;;;;;;;2.25;0.50;;;10.90;99.90;;;;;;5043339;28;20072;-78
2023/08/31 02:56:34;;;;;;;2.15;0.50;;;10.90;99.90;;;;;;5040895;28;20489;-78
2023/08/31 02:59:00;;;;;;;2.58;0.43;;;10.90;99.90;;;;;;5041742;28;20041;-79
2023/08/31 03:01:25;;;;;;;1.15;0.35;;;10.90;99.90;;;;;;5041995;28;20378;-79
2023/08/31 03:03:51;;;;;;;3.03;0.60;;;10.90;99.90;;;;;;5040609;28;20183;-79
2023/08/31 03:06:17;;;;;;;2.55;0.40;;;10.80;99.90;;;;;;5028307;28;20049;-79
2023/08/31 03:08:43;;;;;;;0.93;0.30;;;10.80;99.90;;;;;;5045249;28;20127;-79
2023/08/31 03:11:09;;;;;;;3.78;0.50;;;10.80;99.90;;;;;;5046673;28;20037;-79
2023/08/31 03:13:34;;;;;;;2.28;0.45;;;10.80;99.90;;;;;;5043957;28;20049;-79
2023/08/31 03:16:01;;;;;;;1.75;0.50;;;10.70;99.90;;;;;;5047179;28;20036;-79
2023/08/31 03:18:27;;;;;;;4.10;0.57;;;12.00;99.90;;;;;;5038906;28;20454;-79
2023/08/31 03:20:54;;;;;;;3.50;0.68;;;10.70;99.90;;;;;;5031446;28;20103;-79
2023/08/31 03:23:19;;;;;;;1.40;0.40;;;10.70;99.90;;;;;;5035775;28;20051;-79
2023/08/31 03:25:45;;;;;;;2.95;0.57;;;10.70;99.90;;;;;;5047670;28;20069;-79
2023/08/31 03:28:11;;;;;;;2.30;0.40;;;10.70;99.90;;;;;;5037809;28;20051;-79
2023/08/31 03:30:36;;;;;;;1.58;0.60;;;10.70;99.90;;;;;;5045016;28;20055;-79
2023/08/31 03:33:02;;;;;;;0.85;0.30;;;10.70;99.90;;;;;;5039667;28;20079;-79
2023/08/31 03:35:28;;;;;;;3.63;0.50;;;10.70;99.90;;;;;;5039593;28;20489;-79
2023/08/31 03:37:55;;;;;;;4.15;0.60;;;10.70;99.90;;;;;;5047216;28;20091;-79
2023/08/31 03:40:21;;;;;;;1.83;0.82;;;10.70;99.90;;;;;;5033113;28;20576;-78
2023/08/31 03:42:47;;;;;;;4.10;0.70;;;10.70;99.90;;;;;;5031603;28;20512;-79
2023/08/31 03:45:12;;;;;;;3.50;0.52;;;10.70;99.90;;;;;;5042040;28;20087;-79
2023/08/31 03:47:38;;;;;;;4.65;0.68;;;10.70;99.90;;;;;;5033071;28;20090;-79
2023/08/31 03:50:05;;;;;;;3.55;0.63;;;10.70;99.90;;;;;;5042553;28;20037;-79
2023/08/31 03:52:31;;;;;;;2.47;0.55;;;10.70;99.90;;;;;;5041705;28;20037;-79
2023/08/31 03:54:56;;;;;;;2.50;0.70;;;10.70;99.90;;;;;;5046758;28;20037;-79
2023/08/31 03:57:22;;;;;;;3.08;0.68;;;10.70;99.90;;;;;;5043117;28;20400;-79
2023/08/31 03:59:48;;;;;;;4.00;0.88;;;10.70;99.90;;;;;;5041428;28;20573;-79
2023/08/31 04:02:13;;;;;;;2.53;0.82;;;10.70;99.90;;;;;;5025125;28;20113;-78
2023/08/31 04:04:40;;;;;;;1.30;0.60;;;10.80;99.90;;;;;;5048202;28;20083;-79
2023/08/31 04:07:06;;;;;;;2.85;0.60;;;10.80;99.90;;;;;;5049903;28;20041;-79
2023/08/31 04:09:32;;;;;;;3.40;0.70;;;10.80;99.90;;;;;;5034431;28;20049;-79
2023/08/31 04:11:57;;;;;;;2.25;1.00;;;11.50;99.90;;;;;;5044918;28;20048;-79
2023/08/31 04:14:23;;;;;;;4.25;0.80;;;10.80;99.90;;;;;;5032967;28;20087;-79
2023/08/31 04:16:50;;;;;;;0.95;0.40;;;11.70;99.90;;;;;;5042256;28;20049;-79
2023/08/31 04:19:17;;;;;;;4.88;0.77;;;10.80;99.90;;;;;;5041400;28;20048;-80
2023/08/31 04:21:43;;;;;;;2.60;0.90;;;10.80;99.90;;;;;;5032072;28;20037;-80
2023/08/31 04:24:09;;;;;;;1.40;0.45;;;10.90;99.90;;;;;;5039727;28;20045;-80
2023/08/31 04:26:35;;;;;;;1.27;0.50;;;11.10;99.90;;;;;;5038743;28;20168;-79
2023/08/31 04:29:03;;;;;;;1.42;0.50;;;10.90;99.90;;;;;;5039852;28;20111;-80
2023/08/31 04:31:28;;;;;;;3.65;1.13;;;10.80;99.90;;;;;;5043985;28;20121;-79
2023/08/31 04:33:54;;;;;;;2.47;0.70;;;10.80;99.90;;;;;;5032834;28;20184;-79
2023/08/31 04:36:21;;;;;;;2.15;0.38;;;10.80;99.90;;;;;;5057569;28;20052;-79
2023/08/31 04:38:48;;;;;;;4.22;0.98;;;10.80;99.90;;;;;;5044431;28;20052;-79
2023/08/31 04:41:14;;;;;;;1.38;0.93;;;10.80;99.90;;;;;;5044975;28;20041;-79
2023/08/31 04:43:40;;;;;;;1.73;0.80;;;10.80;99.90;;;;;;5036493;28;20037;-80
2023/08/31 04:46:06;;;;;;;2.78;0.85;;;10.80;99.90;;;;;;5048479;28;20050;-78
2023/08/31 04:48:32;;;;;;;1.77;0.77;;;10.80;99.90;;;;;;5018715;28;20075;-79
2023/08/31 04:50:58;;;;;;;4.43;1.23;;;10.80;99.90;;;;;;5045321;28;20033;-79
2023/08/31 04:53:23;;;;;;;1.45;0.88;;;10.80;99.90;;;;;;5042558;28;20088;-78
2023/08/31 04:55:49;;;;;;;2.17;1.23;;;10.80;99.90;;;;;;5039195;28;20374;-80
2023/08/31 04:58:15;;;;;;;2.05;1.17;;;10.80;99.90;;;;;;5044975;28;20041;-80
2023/08/31 05:00:40;;;;;;;6.35;1.40;;;10.80;99.90;;;;;;5044832;28;20546;-80
2023/08/31 05:03:06;;;;;;;3.38;2.03;;;10.70;99.90;;;;;;5051005;28;20086;-79
2023/08/31 05:05:32;;;;;;;3.78;1.20;;;10.70;99.90;;;;;;5036440;28;20424;-79
2023/08/31 05:07:59;;;;;;;3.45;1.98;;;12.40;99.90;;;;;;5036010;28;20478;-79
2023/08/31 05:10:24;;;;;;;2.05;1.33;;;10.70;99.90;;;;;;5044069;28;20048;-80
2023/08/31 05:12:50;;;;;;;3.72;2.08;;;10.70;99.90;;;;;;5053233;28;20502;-79
2023/08/31 05:15:16;;;;;;;4.28;3.45;;;12.20;99.90;;;;;;5045404;28;20036;-80
2023/08/31 05:17:42;;;;;;;9.73;6.15;;;10.70;99.90;;;;;;5042789;28;20044;-80
2023/08/31 05:20:09;;;;;;;8.02;3.17;;;10.70;99.90;;;;;;5036082;28;20136;-81
2023/08/31 05:22:35;;;;;;;3.35;2.70;;;10.80;99.90;;;;;;5046263;28;20421;-80
2023/08/31 05:25:01;;;;;;;6.25;2.40;;;11.70;99.90;;;;;;5047202;28;20191;-80
2023/08/31 05:27:27;;;;;;;4.82;1.88;;;11.40;99.90;;;;;;5052752;28;20045;-79
2023/08/31 05:29:53;;;;;;;2.50;2.10;;;10.80;99.90;;;;;;5032683;28;20487;-79
2023/08/31 05:32:18;;;;;;;13.73;8.70;;;10.80;99.90;;;;;;5028564;28;20101;-80
2023/08/31 05:34:46;;;;;;;10.48;5.25;;;10.90;99.90;;;;;;5030629;28;20049;-79
2023/08/31 05:37:13;;;;;;;7.50;4.65;;;11.00;99.90;;;;;;5013612;28;20084;-79
2023/08/31 05:39:39;;;;;;;6.88;2.83;;;11.60;99.90;;;;;;5011678;28;20132;-79
2023/08/31 05:42:05;;;;;;;5.82;2.10;;;12.40;99.90;;;;;;5012366;28;21061;-80
2023/08/31 05:44:30;;;;;;;4.47;2.47;;;11.00;99.90;;;;;;5012608;28;20398;-79
2023/08/31 05:46:56;;;;;;;7.35;3.30;;;10.90;99.90;;;;;;5012243;28;20030;-80
2023/08/31 05:49:22;;;;;;;5.85;2.63;;;10.70;99.90;;;;;;5012672;28;20046;-79
2023/08/31 05:51:48;;;;;;;6.80;2.30;;;11.00;99.90;;;;;;5012692;28;20042;-83
2023/08/31 05:54:14;;;;;;;10.93;4.55;;;11.00;99.90;;;;;;5013987;28;20196;-83
2023/08/31 05:56:40;;;;;;;9.93;5.88;;;11.10;99.90;;;;;;4314894;28;10000711;-84
2023/08/31 05:59:07;;;;;;;9.15;4.32;;;11.10;99.90;;;;;;5016966;28;20061;-84
2023/08/31 06:01:34;;;;;;;5.07;2.20;;;11.90;99.90;;;;;;5010777;28;20041;-83
2023/08/31 06:04:00;;;;;;;6.05;1.80;;;12.10;99.90;;;;;;5006106;28;20502;-84
2023/08/31 06:06:26;;;;;;;5.60;1.63;;;12.70;99.90;;;;;;5001777;28;20381;-84
2023/08/31 06:08:53;;;;;;;6.78;2.65;;;11.00;99.90;;;;;;5003317;28;20038;-83
2023/08/31 06:11:19;;;;;;;7.93;2.28;;;11.20;99.90;;;;;;4996784;28;20053;-83
2023/08/31 06:13:44;;;;;;;6.00;1.80;;;11.30;99.90;;;;;;5002640;28;20411;-84
2023/08/31 06:16:10;;;;;;;3.50;1.80;;;11.30;99.90;;;;;;4999851;28;20054;-83
2023/08/31 06:18:36;;;;;;;7.22;2.22;;;13.10;99.90;;;;;;4982578;28;20081;-83
2023/08/31 06:21:02;;;;;;;4.85;1.70;;;11.50;99.90;;;;;;5000037;28;20038;-84
2023/08/31 06:23:27;;;;;;;3.10;1.48;;;11.50;99.90;;;;;;4995529;28;20096;-82
2023/08/31 06:25:53;;;;;;;6.35;2.10;;;11.60;99.90;;;;;;5037388;28;20050;-82
2023/08/31 06:28:18;;;;;;;6.35;2.20;;;11.70;99.90;;;;;;5005416;28;20053;-82
2023/08/31 06:30:47;;;;;;;4.03;1.90;;;11.70;99.90;;;;;;5012384;28;20065;-82
2023/08/31 06:33:17;;;;;;;5.18;1.70;;;12.30;99.90;;;;;;5047240;28;20045;-83
2023/08/31 06:35:45;;;;;;;7.47;1.90;;;11.80;99.90;;;;;;5031440;28;20048;-82
2023/08/31 06:38:11;;;;;;;4.78;1.58;;;11.90;99.90;;;;;;5035204;28;20536;-83
2023/08/31 06:40:36;;;;;;;4.30;1.63;;;11.90;99.90;;;;;;5029650;28;20037;-83
2023/08/31 06:43:03;;;;;;;5.50;1.20;;;12.00;99.90;;;;;;5039041;28;20037;-83
2023/08/31 06:45:28;;;;;;;6.30;1.60;;;12.10;99.90;;;;;;5032418;28;20041;-83
2023/08/31 06:47:54;;;;;;;3.53;1.40;;;12.30;99.90;;;;;;5043478;28;20041;-83
2023/08/31 06:50:20;;;;;;;5.85;1.60;;;12.10;99.90;;;;;;5040874;28;20519;-82
2023/08/31 06:52:46;;;;;;;6.22;1.60;;;12.20;99.90;;;;;;5032721;28;20048;-81
2023/08/31 06:55:12;;;;;;;3.10;1.60;;;13.40;99.90;;;;;;5009470;28;20052;-82
2023/08/31 06:57:38;;;;;;;4.47;1.85;;;13.90;99.90;;;;;;5042743;28;20041;-84
2023/08/31 07:00:05;;;;;;;2.05;1.48;;;12.30;99.90;;;;;;5032440;28;20045;-83
2023/08/31 07:02:31;;;;;;;3.90;1.85;;;12.40;99.90;;;;;;5027080;28;20041;-82
2023/08/31 07:04:57;;;;;;;4.57;1.23;;;12.50;99.90;;;;;;5026171;28;20045;-82
2023/08/31 07:07:22;;;;;;;3.55;1.15;;;12.50;99.90;;;;;;5037021;28;20060;-81
2023/08/31 07:09:48;;;;;;;3.75;1.38;;;12.50;99.90;;;;;;5030612;28;20090;-82
2023/08/31 07:12:14;;;;;;;6.00;1.67;;;12.60;99.90;;;;;;5032989;28;20544;-83
2023/08/31 07:14:40;;;;;;;4.70;1.30;;;12.70;99.90;;;;;;5041243;28;20089;-83
2023/08/31 07:17:06;;;;;;;4.85;1.15;;;13.40;99.90;;;;;;5038000;28;20080;-82
2023/08/31 07:19:34;;;;;;;7.03;1.23;;;14.00;99.90;;;;;;5030021;28;20087;-84
2023/08/31 07:22:00;;;;;;;3.55;0.60;;;14.10;99.90;;;;;;5042433;28;20490;-82
2023/08/31 07:24:26;;;;;;;3.90;0.80;;;13.00;99.90;;;;;;5015642;28;20044;-82
2023/08/31 07:26:52;;;;;;;4.18;0.60;;;13.00;99.90;;;;;;5031150;28;20049;-84
2023/08/31 07:29:17;;;;;;;3.00;0.70;;;13.10;99.90;;;;;;5037934;28;20050;-82
2023/08/31 07:31:43;;;;;;;4.53;1.02;;;13.10;99.90;;;;;;5039600;28;20045;-82
2023/08/31 07:34:08;;;;;;;4.13;0.80;;;13.20;99.90;;;;;;5046655;28;20048;-85
2023/08/31 07:36:34;;;;;;;3.55;0.60;;;13.70;99.90;;;;;;5039591;28;20080;-83
2023/08/31 07:39:00;;;;;;;4.63;0.90;;;14.60;99.90;;;;;;5038919;28;20077;-82
2023/08/31 07:41:25;;;;;;;6.90;1.38;;;13.40;99.90;;;;;;5049538;28;20178;-85
2023/08/31 07:43:51;;;;;;;2.42;0.68;;;13.10;99.90;;;;;;5042408;28;20072;-84
2023/08/31 07:46:18;;;;;;;3.33;0.43;;;13.60;99.90;;;;;;5028449;28;20699;-84
2023/08/31 07:48:43;;;;;;;5.25;0.63;;;13.70;99.90;;;;;;5035152;28;20064;-81
2023/08/31 07:51:09;;;;;;;3.35;0.70;;;13.80;99.90;;;;;;5040432;28;20528;-83
2023/08/31 07:53:35;;;;;;;3.42;0.50;;;13.80;99.90;;;;;;5048929;28;20509;-83
2023/08/31 07:56:00;;;;;;;2.55;0.60;;;13.90;99.90;;;;;;5049380;28;20678;-82
2023/08/31 07:58:26;;;;;;;4.38;0.60;;;15.10;99.90;;;;;;5048261;28;20033;-83
2023/08/31 08:00:58;;;;;;;2.97;0.35;;;14.00;99.90;;;;;;5045739;28;20045;-82
2023/08/31 08:03:24;;;;;;;4.07;0.43;;;14.00;99.90;;;;;;5033294;28;20060;-82
2023/08/31 08:05:50;;;;;;;3.53;0.40;;;14.10;99.90;;;;;;5041811;28;20669;-83
2023/08/31 08:08:15;;;;;;;4.68;0.85;;;15.60;99.90;;;;;;5042817;28;20032;-83
2023/08/31 08:10:42;;;;;;;4.53;0.60;;;14.30;99.90;;;;;;5051394;28;20124;-82
2023/08/31 08:13:08;;;;;;;4.07;0.85;;;14.40;99.90;;;;;;5049108;28;20040;-81
2023/08/31 08:15:34;;;;;;;5.20;0.50;;;14.40;99.90;;;;;;5053871;28;20042;-83
2023/08/31 08:18:00;;;;;;;3.25;0.30;;;14.40;99.90;;;;;;5051916;28;20527;-83
2023/08/31 08:20:26;;;;;;;5.60;0.93;;;14.50;99.90;;;;;;5036814;28;20124;-83
2023/08/31 08:22:52;;;;;;;3.20;0.93;;;14.50;99.90;;;;;;5036426;28;20045;-83
2023/08/31 08:25:19;;;;;;;3.50;0.40;;;14.60;99.90;;;;;;5055039;28;20056;-84
2023/08/31 08:27:45;;;;;;;2.63;0.52;;;14.60;99.90;;;;;;5041589;28;20124;-83
2023/08/31 08:30:11;;;;;;;3.30;0.40;;;16.00;99.90;;;;;;5043382;28;20132;-83
2023/08/31 08:32:37;;;;;;;3.03;0.40;;;14.70;99.90;;;;;;5036378;28;20048;-83
2023/08/31 08:35:03;;;;;;;2.78;0.60;;;15.30;99.90;;;;;;5045425;28;20045;-83
2023/08/31 08:37:29;;;;;;;4.97;0.68;;;14.80;99.90;;;;;;5044986;28;20049;-82
2023/08/31 08:39:55;;;;;;;1.95;0.22;;;14.90;99.90;;;;;;5053643;28;20041;-84
2023/08/31 08:42:23;;;;;;;2.08;0.28;;;14.90;99.90;;;;;;5035952;28;20174;-83
2023/08/31 08:44:50;;;;;;;2.15;0.43;;;15.10;99.90;;;;;;5028119;28;20045;-84
2023/08/31 08:47:17;;;;;;;3.75;0.40;;;15.20;99.90;;;;;;5019724;28;20163;-82
2023/08/31 08:49:43;;;;;;;2.60;0.30;;;15.30;99.90;;;;;;5051614;28;20057;-82
2023/08/31 08:52:09;;;;;;;2.00;0.28;;;16.00;99.90;;;;;;5036413;28;20037;-84
2023/08/31 08:54:35;;;;;;;1.63;0.50;;;15.50;99.90;;;;;;5043344;28;20052;-84
2023/08/31 08:57:03;;;;;;;0.40;0.10;;;15.50;99.90;;;;;;5042294;28;20140;-82
2023/08/31 08:59:30;;;;;;;3.65;0.40;;;15.50;99.90;;;;;;5042808;28;20370;-84
2023/08/31 09:01:56;;;;;;;2.67;0.30;;;15.30;99.90;;;;;;5044954;28;20073;-85
2023/08/31 09:04:22;;;;;;;2.22;0.43;;;15.80;99.90;;;;;;5050952;28;20076;-85
2023/08/31 09:06:50;;;;;;;2.70;0.20;;;14.70;99.90;;;;;;5050974;28;20047;-85
2023/08/31 09:09:16;;;;;;;1.75;0.10;;;16.00;99.90;;;;;;5041408;28;20112;-86
2023/08/31 09:11:42;;;;;;;1.98;0.20;;;14.30;99.90;;;;;;5035686;28;20088;-86
2023/08/31 09:14:19;;;;;;;3.03;0.43;;;14.10;99.90;;;;;;5039701;28;20073;-84
2023/08/31 09:16:46;;;;;;;2.42;0.40;;;14.00;99.90;;;;;;5043703;28;20072;-83
2023/08/31 09:19:22;;;;;;;4.18;0.32;;;14.60;99.90;;;;;;5045204;28;20057;-86
2023/08/31 09:21:49;;;;;;;0.80;0.20;;;13.90;99.90;;;;;;5041941;28;20457;-85
2023/08/31 09:24:44;;;;;;;3.35;0.30;;;14.50;99.90;;;;;;5034061;28;20154;-85
2023/08/31 09:27:10;;;;;;;1.10;0.28;;;14.10;99.90;;;;;;5038522;28;20087;-84
2023/08/31 09:29:38;;;;;;;0.80;0.30;;;14.10;99.90;;;;;;5043742;28;20396;-85
2023/08/31 09:32:03;;;;;;;2.10;0.43;;;15.40;99.90;;;;;;5041163;28;20049;-84
2023/08/31 09:34:36;;;;;;;4.78;0.50;;;14.40;99.90;;;;;;5049233;28;20051;-83
2023/08/31 09:37:08;;;;;;;2.30;0.65;;;14.50;99.90;;;;;;5044567;28;20045;-83
2023/08/31 09:39:39;;;;;;;3.20;0.63;;;14.60;99.90;;;;;;5044203;28;20095;-84
2023/08/31 09:42:05;;;;;;;5.65;0.60;;;14.70;99.90;;;;;;5032847;28;20124;-81
2023/08/31 09:44:31;;;;;;;3.38;0.93;;;14.80;99.90;;;;;;5044328;28;20128;-82
2023/08/31 09:46:57;;;;;;;4.95;0.90;;;15.30;99.90;;;;;;5035472;28;20406;-84
2023/08/31 09:49:25;;;;;;;1.65;0.45;;;15.20;99.90;;;;;;5044782;28;20434;-82
2023/08/31 09:51:51;;;;;;;3.28;0.45;;;15.30;99.90;;;;;;5042924;28;20045;-81
2023/08/31 09:54:18;;;;;;;2.72;0.38;;;15.20;99.90;;;;;;5052828;28;20077;-85
2023/08/31 09:56:46;;;;;;;4.82;0.60;;;15.30;99.90;;;;;;5044654;28;20128;-84
2023/08/31 09:59:13;;;;;;;2.83;0.63;;;14.80;99.90;;;;;;5031589;28;20053;-83
2023/08/31 10:01:40;;;;;;;4.53;0.40;;;14.50;99.90;;;;;;5052849;28;20076;-86
2023/08/31 10:04:08;;;;;;;2.75;0.40;;;15.20;99.90;;;;;;5053975;28;20047;-84
2023/08/31 10:06:36;;;;;;;4.78;0.40;;;14.30;99.90;;;;;;5037187;28;20083;-81
2023/08/31 10:09:03;;;;;;;2.67;0.50;;;14.30;99.90;;;;;;5041248;28;20108;-84
2023/08/31 10:11:30;;;;;;;2.20;0.38;;;14.40;99.90;;;;;;5035480;28;20103;-83
2023/08/31 10:13:58;;;;;;;1.40;0.15;;;14.50;99.90;;;;;;5043435;28;20049;-84
2023/08/31 10:16:26;;;;;;;1.38;0.35;;;14.60;99.90;;;;;;5044572;28;20048;-84
2023/08/31 10:18:52;;;;;;;2.03;0.40;;;14.90;99.90;;;;;;5041321;28;20562;-84
2023/08/31 10:21:18;;;;;;;0.88;0.30;;;14.70;99.90;;;;;;5046883;28;20460;-84
2023/08/31 10:23:53;;;;;;;3.72;2.97;;;14.90;99.90;;;;;;5045317;28;20080;-85
2023/08/31 10:26:30;;;;;;;1.33;0.43;;;14.90;99.90;;;;;;5038968;28;20046;-84
2023/08/31 10:28:57;;;;;;;1.27;0.30;;;15.10;99.90;;;;;;5051719;28;20049;-83
2023/08/31 10:31:23;;;;;;;1.80;0.60;;;15.10;99.90;;;;;;5042916;28;20142;-83
2023/08/31 10:34:09;;;;;;;1.02;0.30;;;15.20;99.90;;;;;;5033207;28;20037;-83
2023/08/31 10:36:45;;;;;;;2.38;0.55;;;15.30;99.90;;;;;;5043922;28;20045;-84
2023/08/31 10:39:12;;;;;;;2.88;0.40;;;15.40;99.90;;;;;;5036999;28;20052;-82
2023/08/31 10:41:38;;;;;;;2.13;0.70;;;15.40;99.90;;;;;;5050617;28;20052;-83
2023/08/31 10:44:18;;;;;;;1.33;0.20;;;15.40;99.90;;;;;;5033741;28;20044;-85
2023/08/31 10:46:45;;;;;;;2.78;0.30;;;15.50;99.90;;;;;;5034217;28;20049;-85
2023/08/31 10:49:11;;;;;;;1.35;0.17;;;15.50;99.90;;;;;;5043240;28;20041;-86
2023/08/31 10:52:17;;;;;;;0.20;0.20;;;15.70;99.90;;;;;;5030761;28;20051;-83
2023/08/31 10:54:43;;;;;;;1.92;0.40;;;15.40;99.90;;;;;;5028613;28;20478;-83
2023/08/31 10:57:11;;;;;;;1.27;0.17;;;15.50;99.90;;;;;;5033906;28;20037;-84
2023/08/31 10:59:48;;;;;;;3.65;0.35;;;15.30;99.90;;;;;;5043599;28;20052;-85
2023/08/31 11:02:50;;;;;;;5.07;0.40;;;15.30;99.90;;;;;;5036361;28;20041;-81
2023/08/31 11:05:19;;;;;;;2.05;0.40;;;15.50;99.90;;;;;;4981978;28;20058;-82
2023/08/31 11:07:49;;;;;;;2.65;0.32;;;15.60;99.90;;;;;;5039321;28;20061;-81
2023/08/31 11:10:19;;;;;;;2.38;0.93;;;15.80;99.90;;;;;;5045063;28;20041;-84
2023/08/31 11:12:53;;;;;;;0.45;0.15;;;16.00;99.90;;;;;;5034271;28;20131;-81
2023/08/31 11:15:24;;;;;;;1.17;0.20;;;16.10;99.90;;;;;;5043121;28;20409;-84
2023/08/31 11:17:54;;;;;;;1.25;0.40;;;16.30;99.90;;;;;;5041674;28;20059;-83
2023/08/31 11:20:22;;;;;;;2.40;0.30;;;17.70;99.90;;;;;;5033988;28;20040;-80
2023/08/31 11:22:50;;;;;;;4.45;0.60;;;16.60;99.90;;;;;;5042902;28;20517;-84
2023/08/31 11:25:17;;;;;;;4.40;0.60;;;16.70;99.90;;;;;;5047231;28;20049;-83
2023/08/31 11:27:53;;;;;;;4.68;0.50;;;16.70;99.90;;;;;;5039290;28;20056;-83
2023/08/31 11:30:20;;;;;;;1.88;0.45;;;16.60;99.90;;;;;;5042696;28;20416;-82
2023/08/31 11:32:52;;;;;;;3.38;1.20;;;16.50;99.90;;;;;;5033544;28;20057;-81
2023/08/31 11:35:23;;;;;;;3.08;0.35;;;16.40;99.90;;;;;;5044012;28;20385;-82
2023/08/31 11:37:55;;;;;;;2.47;0.50;;;16.40;99.90;;;;;;5035620;28;20041;-82
2023/08/31 11:40:21;;;;;;;2.97;0.25;;;16.50;99.90;;;;;;5048951;28;20044;-82
2023/08/31 11:42:49;;;;;;;1.95;0.20;;;16.60;99.90;;;;;;5032754;28;20040;-82
2023/08/31 11:45:16;;;;;;;2.60;0.30;;;17.40;99.90;;;;;;5038678;28;20053;-81
2023/08/31 11:47:43;;;;;;;2.72;0.47;;;17.10;99.90;;;;;;5035079;28;20044;-83
2023/08/31 11:50:13;;;;;;;2.22;0.22;;;17.20;99.90;;;;;;5058748;28;20068;-84
2023/08/31 11:52:39;;;;;;;2.03;0.20;;;17.30;99.90;;;;;;5039071;28;20033;-83
2023/08/31 11:55:14;;;;;;;1.75;0.25;;;17.30;99.90;;;;;;5051482;28;20033;-83
2023/08/31 11:57:40;;;;;;;1.80;0.30;;;17.30;99.90;;;;;;5051319;28;20583;-82
2023/08/31 12:00:06;;;;;;;7.10;0.63;;;17.20;99.90;;;;;;5041115;28;20037;-81
2023/08/31 12:02:36;;;;;;;0.82;0.30;;;17.10;99.90;;;;;;5033131;28;20033;-83
2023/08/31 12:05:01;;;;;;;2.85;0.63;;;16.90;99.90;;;;;;5049240;28;20391;-83
2023/08/31 12:07:27;;;;;;;4.68;2.60;;;16.60;99.90;;;;;;5042504;28;20105;-82
2023/08/31 12:09:53;;;;;;;1.83;0.40;;;16.40;99.90;;;;;;5041856;28;20060;-82
2023/08/31 12:12:21;;;;;;;1.10;0.28;;;16.20;99.90;;;;;;5038618;28;20040;-83
2023/08/31 12:14:47;;;;;;;3.50;0.35;;;16.10;99.90;;;;;;5049830;28;20075;-81
2023/08/31 12:17:13;;;;;;;1.60;0.40;;;16.00;99.90;;;;;;5039445;28;20041;-82
2023/08/31 12:19:39;;;;;;;0.40;0.30;;;16.00;99.90;;;;;;5032034;28;20049;-84
2023/08/31 12:22:07;;;;;;;1.27;0.30;;;16.60;99.90;;;;;;5042899;28;20040;-80
2023/08/31 12:24:40;;;;;;;2.08;0.35;;;16.10;99.90;;;;;;5021193;28;20038;-83
2023/08/31 12:27:07;;;;;;;1.20;0.43;;;16.20;99.90;;;;;;5030302;28;20082;-82
2023/08/31 12:29:33;;;;;;;1.90;0.57;;;16.30;99.90;;;;;;5041042;28;20029;-85
2023/08/31 12:31:58;;;;;;;3.85;0.43;;;16.40;99.90;;;;;;5040719;28;20054;-85
2023/08/31 12:34:25;;;;;;;2.92;0.20;;;16.30;99.90;;;;;;5044998;28;20045;-85
2023/08/31 12:36:52;;;;;;;3.42;0.40;;;16.30;99.90;;;;;;5046927;28;20049;-84
2023/08/31 12:39:18;;;;;;;1.42;0.40;;;16.30;99.90;;;;;;5035755;28;20037;-84
2023/08/31 12:41:44;;;;;;;1.98;0.32;;;16.30;99.90;;;;;;5045416;28;20500;-83
2023/08/31 12:44:10;;;;;;;1.67;0.57;;;16.50;99.90;;;;;;5033121;28;20056;-84
2023/08/31 12:46:35;;;;;;;3.60;0.50;;;16.70;99.90;;;;;;5033904;28;20080;-82